Time;durP1;ratioP1;P1;durP2;ratioP2;P2;SDS_P1;SDS_P2;PMS_P1;PMS_P2;Temp;Humidity;BMP_temperature;BMP_pressure;BME280_temperature;BME280_humidity;BME280_pressure;Samples;Min_cycle;Max_cycle;Signal;HPM_P1;HPM_P2
2024/01/19 00:01:16;;;;;;;0.90;0.90;;;;;;;0.36;97.91;94723.94;4330977;32;20260;-61
2024/01/19 00:03:42;;;;;;;0.73;0.73;;;;;;;0.31;100.00;94729.09;4329517;32;20232;-61
2024/01/19 00:06:07;;;;;;;0.50;0.50;;;;;;;0.47;99.97;94733.44;4329962;32;20216;-61
2024/01/19 00:08:32;;;;;;;0.77;0.77;;;;;;;0.63;98.88;94729.97;4331502;32;20193;-62
2024/01/19 00:10:58;;;;;;;2.17;1.50;;;;;;;0.55;98.38;94745.28;4330341;32;20244;-62
2024/01/19 00:13:23;;;;;;;2.00;1.90;;;;;;;0.53;97.91;94748.13;4336345;32;20276;-61
2024/01/19 00:15:48;;;;;;;1.27;1.27;;;;;;;0.45;98.53;94751.16;4327806;32;20214;-61
2024/01/19 00:18:13;;;;;;;0.97;0.97;;;;;;;0.64;98.00;94744.59;4330813;32;20248;-61
2024/01/19 00:20:39;;;;;;;1.43;1.30;;;;;;;0.62;95.81;94743.28;4330617;32;20197;-62
2024/01/19 00:23:04;;;;;;;0.67;0.67;;;;;;;0.57;97.33;94751.84;4330019;32;20198;-61
2024/01/19 00:25:30;;;;;;;2.77;1.27;;;;;;;0.52;96.85;94751.78;4334730;32;20216;-62
2024/01/19 00:27:55;;;;;;;1.00;1.00;;;;;;;0.53;97.39;94753.34;4322299;33;20255;-62
2024/01/19 00:30:20;;;;;;;1.20;1.20;;;;;;;0.52;97.83;94759.59;4329948;32;20201;-61
2024/01/19 00:32:46;;;;;;;0.97;0.97;;;;;;;0.59;98.52;94772.47;4330851;32;20289;-62
2024/01/19 00:35:11;;;;;;;1.33;1.33;;;;;;;0.36;98.57;94768.28;4331062;32;20198;-62
2024/01/19 00:37:38;;;;;;;1.10;1.10;;;;;;;0.52;98.87;94772.66;4319742;32;20205;-62
2024/01/19 00:40:11;;;;;;;1.17;0.95;;;;;;;0.30;100.00;94784.91;4331325;32;20189;-61
2024/01/19 00:42:37;;;;;;;1.95;1.87;;;;;;;0.58;100.00;94783.94;4331847;32;20190;-61
2024/01/19 00:45:03;;;;;;;1.33;1.27;;;;;;;0.40;100.00;94789.47;4333412;32;20247;-61
2024/01/19 00:47:28;;;;;;;1.03;1.03;;;;;;;0.49;100.00;94788.78;4336981;32;20202;-61
2024/01/19 00:49:54;;;;;;;1.07;1.07;;;;;;;0.35;100.00;94792.78;4319600;32;20185;-62
2024/01/19 00:52:19;;;;;;;1.53;1.43;;;;;;;0.60;100.00;94785.28;4336547;32;20193;-61
2024/01/19 00:54:44;;;;;;;2.47;1.20;;;;;;;0.59;100.00;94799.34;4330894;32;20194;-62
2024/01/19 00:57:10;;;;;;;0.80;0.80;;;;;;;0.43;100.00;94810.63;4329318;32;20264;-62
2024/01/19 00:59:35;;;;;;;4.53;1.10;;;;;;;0.37;100.00;94806.38;4321511;32;20224;-61
2024/01/19 01:02:00;;;;;;;1.03;1.03;;;;;;;0.71;100.00;94819.28;4332353;32;20193;-62
2024/01/19 01:04:25;;;;;;;1.37;1.33;;;;;;;0.46;100.00;94823.19;4341639;32;20216;-62
2024/01/19 01:06:51;;;;;;;1.40;0.60;;;;;;;0.39;100.00;94824.41;4337090;32;20284;-61
2024/01/19 01:09:16;;;;;;;0.30;0.30;;;;;;;0.27;98.27;94827.91;4327715;32;20313;-62
2024/01/19 01:11:41;;;;;;;6.80;1.27;;;;;;;0.29;89.31;94838.09;4322217;32;20232;-61
2024/01/19 01:14:09;;;;;;;0.60;0.60;;;;;;;0.11;87.58;94840.97;4334438;32;20198;-61
2024/01/19 01:16:34;;;;;;;0.80;0.80;;;;;;;0.10;87.72;94847.22;4337330;32;20240;-61
2024/01/19 01:18:59;;;;;;;0.73;0.73;;;;;;;0.04;88.34;94853.38;4336083;32;20189;-61
2024/01/19 01:21:25;;;;;;;1.30;1.20;;;;;;;0.06;88.13;94852.12;4336835;32;20213;-61
2024/01/19 01:23:50;;;;;;;1.13;1.13;;;;;;;-0.05;88.80;94850.41;4332321;32;20185;-61
2024/01/19 01:26:16;;;;;;;0.40;0.40;;;;;;;-0.14;89.48;94841.37;4319893;32;20276;-62
2024/01/19 01:28:41;;;;;;;1.00;1.00;;;;;;;-0.03;90.42;94850.97;4321025;32;20257;-62
2024/01/19 01:31:06;;;;;;;1.40;1.33;;;;;;;-0.08;90.87;94843.84;4331208;32;20260;-62
2024/01/19 01:33:32;;;;;;;1.10;1.03;;;;;;;0.10;90.92;94849.81;4332905;32;20280;-62
2024/01/19 01:35:57;;;;;;;1.00;1.00;;;;;;;0.09;91.15;94856.06;4327755;32;20232;-62
2024/01/19 01:38:22;;;;;;;1.13;1.03;;;;;;;0.16;90.55;94864.53;4330265;32;20212;-62
2024/01/19 01:40:48;;;;;;;1.90;1.60;;;;;;;0.30;91.08;94863.94;4325875;32;20216;-61
2024/01/19 01:43:22;;;;;;;8.93;1.70;;;;;;;0.48;90.78;94870.69;4324791;32;20399;-62
2024/01/19 01:45:47;;;;;;;0.40;0.40;;;;;;;0.40;90.51;94868.50;4330924;32;20241;-62
2024/01/19 01:48:13;;;;;;;1.40;0.90;;;;;;;0.27;91.07;94880.06;4337787;32;20232;-62
2024/01/19 01:50:39;;;;;;;0.73;0.73;;;;;;;0.54;90.98;94880.16;4316614;33;20190;-61
2024/01/19 01:53:05;;;;;;;1.33;1.23;;;;;;;0.69;90.21;94877.75;4344303;32;20216;-61
2024/01/19 01:55:30;;;;;;;1.90;1.53;;;;;;;0.47;90.40;94887.37;4332993;32;20239;-62
2024/01/19 01:57:55;;;;;;;0.47;0.47;;;;;;;0.63;89.68;94888.34;4325323;33;20237;-62
2024/01/19 02:00:23;;;;;;;0.87;0.87;;;;;;;0.54;89.25;94890.59;4332654;32;20256;-61
2024/01/19 02:02:49;;;;;;;1.98;1.00;;;;;;;0.42;89.18;94902.16;4320330;33;20227;-62
2024/01/19 02:05:15;;;;;;;2.97;1.23;;;;;;;0.19;92.03;94908.38;4319853;32;20240;-61
2024/01/19 02:07:40;;;;;;;0.63;0.63;;;;;;;0.34;92.14;94911.19;4329594;32;20189;-62
2024/01/19 02:10:06;;;;;;;1.43;1.03;;;;;;;0.26;92.44;94914.19;4332513;32;20209;-62
2024/01/19 02:12:32;;;;;;;0.40;0.40;;;;;;;0.21;89.67;94916.72;4329323;32;20212;-62
2024/01/19 02:14:58;;;;;;;0.77;0.77;;;;;;;0.18;89.73;94919.84;4316812;32;20190;-62
2024/01/19 02:17:25;;;;;;;0.50;0.50;;;;;;;0.07;89.33;94931.13;4339714;32;20224;-62
2024/01/19 02:19:50;;;;;;;1.05;0.80;;;;;;;0.22;88.36;94931.34;4334590;32;20204;-61
2024/01/19 02:22:16;;;;;;;0.87;0.87;;;;;;;0.24;86.32;94937.12;4334747;32;20260;-61
2024/01/19 02:24:41;;;;;;;6.17;1.30;;;;;;;0.22;87.57;94945.16;4319898;32;20260;-62
2024/01/19 02:27:08;;;;;;;0.73;0.73;;;;;;;0.32;87.10;94947.16;4324635;32;20201;-62
2024/01/19 02:29:34;;;;;;;1.02;0.80;;;;;;;0.36;87.94;94948.28;4331133;32;20189;-62
2024/01/19 02:31:59;;;;;;;0.30;0.30;;;;;;;0.31;87.05;94951.59;4326641;32;20227;-61
2024/01/19 02:34:24;;;;;;;0.50;0.50;;;;;;;0.42;85.70;94955.13;4338764;32;20220;-61
2024/01/19 02:36:50;;;;;;;1.40;1.40;;;;;;;0.33;87.97;94946.91;4332347;32;20202;-62
2024/01/19 02:39:15;;;;;;;0.60;0.60;;;;;;;0.24;87.54;94963.19;4332899;32;20272;-61
2024/01/19 02:41:41;;;;;;;0.40;0.40;;;;;;;0.24;87.13;94963.97;4322951;32;20209;-61
2024/01/19 02:44:07;;;;;;;1.00;1.00;;;;;;;0.38;86.05;94959.25;4330949;32;20197;-62
2024/01/19 02:46:32;;;;;;;1.40;1.40;;;;;;;0.43;86.27;94963.72;4324302;32;20213;-61
2024/01/19 02:48:58;;;;;;;0.90;0.90;;;;;;;0.43;85.79;94961.91;4322699;32;20189;-61
2024/01/19 02:51:23;;;;;;;0.70;0.50;;;;;;;0.27;87.67;94968.72;4332773;32;20220;-61
2024/01/19 02:53:48;;;;;;;0.70;0.70;;;;;;;0.32;86.60;94970.63;4332280;32;20202;-61
2024/01/19 02:56:14;;;;;;;0.57;0.57;;;;;;;0.46;87.02;94976.31;4320290;32;20263;-61
2024/01/19 02:58:39;;;;;;;0.93;0.93;;;;;;;0.41;87.34;94979.66;4336000;32;20186;-61
2024/01/19 03:01:05;;;;;;;0.87;0.87;;;;;;;0.40;87.04;94987.72;4331639;32;20256;-62
2024/01/19 03:03:31;;;;;;;0.77;0.77;;;;;;;0.49;85.94;94987.06;4318221;32;20204;-62
2024/01/19 03:05:56;;;;;;;0.20;0.20;;;;;;;0.31;87.29;94985.50;4335511;32;20198;-61
2024/01/19 03:08:22;;;;;;;3.60;1.23;;;;;;;0.12;86.75;94991.19;4334324;32;20208;-61
2024/01/19 03:10:47;;;;;;;1.57;1.50;;;;;;;-0.04;87.49;94998.75;4330515;32;20300;-61
2024/01/19 03:13:13;;;;;;;0.77;0.77;;;;;;;0.16;87.60;94997.50;4327433;32;20206;-61
2024/01/19 03:15:38;;;;;;;0.43;0.17;;;;;;;0.38;87.47;95000.19;4334580;32;20208;-61
2024/01/19 03:18:04;;;;;;;2.30;1.17;;;;;;;0.17;88.09;95005.09;4317985;32;20249;-62
2024/01/19 03:20:29;;;;;;;2.37;0.47;;;;;;;0.19;88.59;95002.25;4327606;32;20194;-62
2024/01/19 03:22:54;;;;;;;0.60;0.60;;;;;;;0.33;88.04;95009.53;4336591;32;20220;-62
2024/01/19 03:25:20;;;;;;;1.23;0.70;;;;;;;0.14;88.42;95007.38;4322280;32;20212;-61
2024/01/19 03:27:45;;;;;;;1.30;1.30;;;;;;;0.16;87.85;95013.16;4331657;32;20247;-62
2024/01/19 03:30:11;;;;;;;1.23;1.10;;;;;;;0.02;88.46;95020.47;4325980;32;20205;-61
2024/01/19 03:32:36;;;;;;;0.60;0.60;;;;;;;-0.24;89.46;95019.25;4332196;32;20265;-61
2024/01/19 03:35:02;;;;;;;0.47;0.47;;;;;;;-0.16;88.21;95029.28;4331066;32;20198;-61
2024/01/19 03:37:28;;;;;;;1.13;1.13;;;;;;;0.00;88.65;95031.13;4322126;32;20185;-62
2024/01/19 03:39:53;;;;;;;1.07;1.00;;;;;;;0.00;89.84;95028.50;4325237;32;20249;-61
2024/01/19 03:42:18;;;;;;;1.13;1.13;;;;;;;-0.06;90.58;95037.28;4331283;32;20227;-62
2024/01/19 03:44:44;;;;;;;0.93;0.93;;;;;;;0.12;90.50;95043.31;4330776;32;20367;-61
2024/01/19 03:47:09;;;;;;;1.73;1.63;;;;;;;0.43;88.66;95040.19;4319560;32;20193;-61
2024/01/19 03:49:35;;;;;;;1.07;1.00;;;;;;;0.38;88.68;95039.31;4333734;32;20194;-61
2024/01/19 03:52:02;;;;;;;0.60;0.60;;;;;;;0.18;88.68;95055.44;4320832;32;20244;-61
2024/01/19 03:54:28;;;;;;;1.60;1.52;;;;;;;0.26;88.49;95052.41;4332898;32;20194;-62
2024/01/19 03:56:55;;;;;;;1.43;1.13;;;;;;;0.28;88.34;95059.00;4336719;32;20199;-61
2024/01/19 03:59:20;;;;;;;0.73;0.73;;;;;;;0.31;88.73;95055.91;4339887;32;20221;-61
2024/01/19 04:01:46;;;;;;;1.53;1.53;;;;;;;0.37;87.29;95056.00;4343901;32;20186;-61
2024/01/19 04:04:11;;;;;;;6.30;1.90;;;;;;;0.21;87.84;95057.53;4343296;32;20213;-61
2024/01/19 04:06:36;;;;;;;1.97;0.73;;;;;;;0.03;87.01;95076.00;4343300;32;20224;-61
2024/01/19 04:09:02;;;;;;;1.87;1.77;;;;;;;0.00;87.70;95072.84;4344492;32;20220;-61
2024/01/19 04:11:28;;;;;;;1.37;1.27;;;;;;;-0.08;87.58;95080.25;4346121;32;20189;-62
2024/01/19 04:13:54;;;;;;;2.03;1.92;;;;;;;-0.03;88.22;95067.31;4334077;32;20198;-61
2024/01/19 04:16:19;;;;;;;2.03;1.93;;;;;;;-0.10;88.74;95072.66;4346197;32;20188;-61
2024/01/19 04:18:45;;;;;;;2.60;1.10;;;;;;;-0.02;89.83;95080.13;4346755;32;20220;-61
2024/01/19 04:21:10;;;;;;;0.93;0.93;;;;;;;0.04;89.70;95078.38;4346287;32;20205;-61
2024/01/19 04:23:35;;;;;;;2.60;2.27;;;;;;;-0.06;89.93;95089.44;4332043;32;20249;-62
2024/01/19 04:26:01;;;;;;;2.27;2.17;;;;;;;-0.31;90.57;95088.94;4331699;32;20197;-62
2024/01/19 04:28:26;;;;;;;1.37;1.20;;;;;;;-0.02;90.03;95089.75;4333671;32;20256;-62
2024/01/19 04:30:51;;;;;;;1.07;1.07;;;;;;;-0.01;90.30;95097.34;4343767;32;20303;-61
2024/01/19 04:33:17;;;;;;;1.37;1.37;;;;;;;0.00;90.96;95092.94;4345405;32;20269;-62
2024/01/19 04:35:42;;;;;;;4.23;1.87;;;;;;;-0.16;90.23;95089.22;4345679;32;20241;-61
2024/01/19 04:38:07;;;;;;;1.27;1.27;;;;;;;-0.17;90.72;95090.25;4344564;32;20324;-62
2024/01/19 04:40:33;;;;;;;1.47;1.37;;;;;;;0.04;89.76;95082.81;4346266;32;20236;-62
2024/01/19 04:42:58;;;;;;;1.03;1.03;;;;;;;0.10;89.83;95092.31;4341902;32;20190;-62
2024/01/19 04:45:23;;;;;;;1.63;1.53;;;;;;;0.06;90.09;95094.59;4334284;32;20267;-62
2024/01/19 04:47:49;;;;;;;1.37;1.37;;;;;;;-0.04;89.26;95103.03;4344768;32;20237;-61
2024/01/19 04:50:14;;;;;;;1.00;1.00;;;;;;;-0.06;89.44;95099.84;4345128;32;20237;-61
2024/01/19 04:52:39;;;;;;;2.23;1.57;;;;;;;-0.07;89.64;95103.47;4343612;32;20205;-61
2024/01/19 04:55:05;;;;;;;2.30;1.63;;;;;;;-0.26;89.48;95102.06;4344879;32;20236;-61
2024/01/19 04:57:30;;;;;;;1.73;1.60;;;;;;;-0.26;90.32;95104.69;4343764;32;20233;-61
2024/01/19 04:59:56;;;;;;;1.63;1.53;;;;;;;-0.23;90.37;95106.03;4345838;32;20295;-62
2024/01/19 05:02:21;;;;;;;1.80;1.70;;;;;;;-0.22;90.15;95110.22;4343939;32;20185;-61
2024/01/19 05:04:47;;;;;;;1.07;1.07;;;;;;;-0.32;90.44;95120.44;4344304;32;20296;-61
2024/01/19 05:07:12;;;;;;;2.20;2.10;;;;;;;-0.30;90.28;95113.97;4345706;32;20215;-62
2024/01/19 05:09:37;;;;;;;6.13;1.47;;;;;;;-0.38;90.68;95114.31;4344198;32;20193;-62
2024/01/19 05:12:03;;;;;;;0.80;0.80;;;;;;;-0.37;90.64;95115.91;4343013;32;20201;-62
2024/01/19 05:14:28;;;;;;;2.77;1.53;;;;;;;-0.01;89.92;95123.41;4343273;32;20193;-62
2024/01/19 05:16:54;;;;;;;2.20;2.10;;;;;;;0.06;89.20;95125.88;4345059;32;20185;-61
2024/01/19 05:19:19;;;;;;;2.43;2.33;;;;;;;-0.06;89.50;95131.13;4345277;32;20204;-61
2024/01/19 05:21:44;;;;;;;2.33;2.20;;;;;;;-0.03;89.83;95141.09;4345256;32;20241;-61
2024/01/19 05:24:10;;;;;;;1.47;1.37;;;;;;;0.08;88.85;95138.69;4345134;32;20269;-61
2024/01/19 05:26:35;;;;;;;3.00;2.80;;;;;;;0.05;89.12;95141.75;4345122;32;20207;-61
2024/01/19 05:29:00;;;;;;;1.40;1.30;;;;;;;0.08;88.26;95143.88;4345571;32;20237;-61
2024/01/19 05:31:26;;;;;;;1.50;1.50;;;;;;;-0.21;88.82;95149.09;4348053;32;20263;-62
2024/01/19 05:33:51;;;;;;;4.83;1.67;;;;;;;-0.35;90.29;95152.94;4332041;32;20206;-61
2024/01/19 05:36:17;;;;;;;0.90;0.90;;;;;;;-0.41;90.96;95153.84;4331088;32;20263;-61
2024/01/19 05:38:42;;;;;;;2.27;2.17;;;;;;;-0.26;91.48;95156.78;4343606;32;20198;-62
2024/01/19 05:41:07;;;;;;;2.37;2.20;;;;;;;-0.31;90.36;95159.28;4331300;32;20201;-62
2024/01/19 05:43:33;;;;;;;2.33;2.17;;;;;;;-0.29;90.23;95157.25;4344652;32;20219;-61
2024/01/19 05:45:58;;;;;;;1.47;1.43;;;;;;;-0.12;90.05;95160.72;4344366;32;20259;-61
2024/01/19 05:48:25;;;;;;;1.20;1.20;;;;;;;-0.17;89.55;95163.22;4345763;32;20190;-61
2024/01/19 05:50:50;;;;;;;2.20;2.10;;;;;;;-0.31;89.31;95163.72;4342740;32;20190;-61
2024/01/19 05:53:15;;;;;;;2.70;1.77;;;;;;;-0.20;89.94;95170.69;4344999;32;20212;-62
2024/01/19 05:55:42;;;;;;;2.73;2.23;;;;;;;-0.26;89.91;95172.44;4331822;32;20236;-61
2024/01/19 05:58:07;;;;;;;2.40;2.22;;;;;;;-0.46;90.93;95175.41;4345578;32;20236;-61
2024/01/19 06:00:33;;;;;;;3.47;2.43;;;;;;;-0.09;90.33;95170.69;4319347;32;20193;-61
2024/01/19 06:02:58;;;;;;;2.03;1.93;;;;;;;-0.22;89.36;95181.38;4332570;32;20198;-61
2024/01/19 06:05:24;;;;;;;4.07;1.83;;;;;;;-0.32;89.82;95178.53;4333195;32;20244;-61
2024/01/19 06:07:49;;;;;;;2.00;1.80;;;;;;;-0.07;89.35;95186.09;4316087;32;20224;-61
2024/01/19 06:10:15;;;;;;;2.93;2.73;;;;;;;-0.12;88.76;95194.59;4329019;32;20253;-62
2024/01/19 06:12:41;;;;;;;2.20;2.10;;;;;;;0.12;88.18;95191.94;4329335;32;20208;-62
2024/01/19 06:15:06;;;;;;;1.07;1.07;;;;;;;-0.12;88.23;95189.41;4330488;32;20193;-61
2024/01/19 06:17:32;;;;;;;2.30;2.20;;;;;;;-0.14;87.42;95201.06;4317322;32;20177;-61
2024/01/19 06:19:57;;;;;;;1.97;1.80;;;;;;;0.00;87.40;95203.19;4316194;32;20194;-64
2024/01/19 06:22:22;;;;;;;2.13;2.03;;;;;;;-0.25;87.55;95215.72;4326557;33;20204;-61
2024/01/19 06:24:51;;;;;;;1.43;1.43;;;;;;;-0.03;87.30;95202.88;4334308;32;20190;-61
2024/01/19 06:27:19;;;;;;;2.03;1.92;;;;;;;-0.03;87.25;95216.69;4329370;32;20193;-61
2024/01/19 06:29:45;;;;;;;2.17;1.92;;;;;;;-0.13;87.18;95219.09;4325678;32;20243;-61
2024/01/19 06:32:10;;;;;;;2.30;2.20;;;;;;;-0.13;87.73;95226.91;4328292;32;20280;-61
2024/01/19 06:34:38;;;;;;;1.10;1.10;;;;;;;0.16;86.39;95235.59;4311484;32;20232;-62
2024/01/19 06:37:04;;;;;;;2.15;2.05;;;;;;;0.03;87.07;95238.44;4323653;32;20182;-61
2024/01/19 06:39:30;;;;;;;2.80;2.60;;;;;;;-0.05;87.25;95242.22;4314022;32;20201;-61
2024/01/19 06:41:55;;;;;;;1.70;1.60;;;;;;;0.04;85.99;95244.44;4323124;33;20221;-61
2024/01/19 06:44:20;;;;;;;4.20;2.67;;;;;;;-0.01;84.87;95248.56;4309629;32;20193;-61
2024/01/19 06:46:46;;;;;;;1.43;1.33;;;;;;;-0.13;86.57;95249.56;4312394;32;20248;-61
2024/01/19 06:49:13;;;;;;;1.43;1.33;;;;;;;-0.01;87.05;95264.19;4328137;32;20182;-62
2024/01/19 06:51:38;;;;;;;3.65;3.08;;;;;;;-0.05;87.14;95257.84;4328903;32;20208;-61
2024/01/19 06:54:03;;;;;;;1.63;1.53;;;;;;;-0.06;87.27;95265.91;4336288;32;20245;-62
2024/01/19 06:56:29;;;;;;;2.20;1.67;;;;;;;0.13;86.16;95272.56;4329214;32;20211;-61
2024/01/19 06:58:54;;;;;;;2.20;2.10;;;;;;;-0.12;86.47;95285.84;4323349;32;20194;-61
2024/01/19 07:01:20;;;;;;;3.17;2.97;;;;;;;-0.15;87.44;95278.47;4315566;32;20190;-61
2024/01/19 07:03:45;;;;;;;2.60;2.40;;;;;;;0.04;85.64;95279.12;4329004;32;20241;-61
2024/01/19 07:06:11;;;;;;;1.90;1.80;;;;;;;-0.12;86.59;95287.66;4328523;32;20233;-62
2024/01/19 07:08:36;;;;;;;1.40;1.30;;;;;;;-0.12;86.75;95296.25;4320393;32;20264;-61
2024/01/19 07:11:02;;;;;;;2.70;1.93;;;;;;;-0.16;86.96;95294.34;4330440;32;20201;-61
2024/01/19 07:13:27;;;;;;;7.77;1.70;;;;;;;-0.28;87.55;95302.16;4334746;32;20299;-60
2024/01/19 07:15:53;;;;;;;3.90;3.57;;;;;;;5.45;100.00;95284.72;4333714;32;20227;-62
2024/01/19 07:18:18;;;;;;;6.90;2.47;;;;;;;7.99;100.00;95291.75;4334913;32;20181;-62
2024/01/19 07:20:43;;;;;;;2.17;2.07;;;;;;;8.72;90.44;95294.25;4337746;32;20220;-62
2024/01/19 07:23:09;;;;;;;3.10;2.77;;;;;;;9.54;78.56;95305.37;4329811;32;20198;-62
2024/01/19 07:25:35;;;;;;;2.27;2.07;;;;;;;10.07;58.10;95313.81;4331556;33;20192;-62
2024/01/19 07:28:00;;;;;;;2.33;1.30;;;;;;;10.21;55.42;95319.97;4331136;32;20340;-62
2024/01/19 07:30:25;;;;;;;2.10;2.00;;;;;;;10.22;52.91;95324.19;4319966;32;20194;-63
2024/01/19 07:32:51;;;;;;;2.33;2.13;;;;;;;10.38;52.12;95332.72;4331104;32;20283;-63
2024/01/19 07:35:17;;;;;;;7.60;2.00;;;;;;;11.24;71.29;95341.69;4330403;32;20189;-63
2024/01/19 07:37:42;;;;;;;2.33;1.63;;;;;;;11.49;69.38;95353.69;4317444;32;20206;-63
2024/01/19 07:40:08;;;;;;;2.13;2.00;;;;;;;11.42;64.42;95355.19;4330341;32;20291;-63
2024/01/19 07:42:33;;;;;;;1.17;1.17;;;;;;;10.23;51.47;95352.28;4330417;32;20201;-62
2024/01/19 07:44:59;;;;;;;1.33;1.33;;;;;;;6.90;53.56;95369.16;4333452;32;20243;-63
2024/01/19 07:47:24;;;;;;;2.00;1.90;;;;;;;5.45;57.49;95376.78;4332410;32;20197;-62
2024/01/19 07:49:50;;;;;;;2.50;1.50;;;;;;;4.30;61.16;95383.88;4334154;32;20208;-63
2024/01/19 07:52:15;;;;;;;1.80;1.70;;;;;;;3.17;66.31;95383.88;4330891;32;20256;-63
2024/01/19 07:54:40;;;;;;;1.90;1.80;;;;;;;2.79;69.59;95402.25;4330484;32;20193;-63
2024/01/19 07:57:06;;;;;;;2.87;2.67;;;;;;;1.54;75.88;95408.69;4331215;32;20197;-62
2024/01/19 07:59:31;;;;;;;1.83;1.73;;;;;;;1.53;76.22;95404.50;4333798;32;20243;-62
2024/01/19 08:02:01;;;;;;;1.53;1.43;;;;;;;1.28;77.59;95407.44;4334404;32;20196;-62
2024/01/19 08:04:27;;;;;;;2.37;1.90;;;;;;;1.26;77.51;95407.66;4320128;32;20259;-63
2024/01/19 08:06:54;;;;;;;3.53;1.37;;;;;;;1.41;78.01;95417.63;4309856;32;20285;-63
2024/01/19 08:09:21;;;;;;;1.77;1.67;;;;;;;0.94;79.37;95419.56;4311438;32;20247;-62
2024/01/19 08:11:47;;;;;;;0.87;0.87;;;;;;;1.19;79.64;95424.50;4308474;33;20344;-62
2024/01/19 08:14:14;;;;;;;2.07;1.83;;;;;;;1.19;78.79;95427.91;4312535;32;20278;-62
2024/01/19 08:16:43;;;;;;;2.00;1.73;;;;;;;1.03;78.52;95433.88;4322511;32;20327;-62
2024/01/19 08:19:08;;;;;;;6.07;2.30;;;;;;;0.97;79.45;95443.41;4296434;32;20335;-63
2024/01/19 08:21:44;;;;;;;2.40;1.67;;;;;;;0.96;78.28;95446.25;4287284;33;20342;-64
2024/01/19 08:24:12;;;;;;;1.37;1.37;;;;;;;1.20;76.44;95450.41;4329540;32;20202;-63
2024/01/19 08:26:42;;;;;;;1.30;1.30;;;;;;;0.99;78.00;95446.59;4310642;32;20282;-62
2024/01/19 08:29:09;;;;;;;1.57;1.57;;;;;;;1.00;79.16;95457.81;4315344;32;20369;-63
2024/01/19 08:31:35;;;;;;;2.90;2.43;;;;;;;1.48;78.95;95460.06;4304874;32;20290;-62
2024/01/19 08:34:00;;;;;;;2.23;2.13;;;;;;;1.76;77.20;95450.66;4303569;32;20294;-64
2024/01/19 08:36:27;;;;;;;1.97;1.87;;;;;;;1.60;76.01;95446.97;4313823;32;20349;-63
2024/01/19 08:38:54;;;;;;;1.93;1.83;;;;;;;1.76;75.91;95456.69;4330697;32;20296;-63
2024/01/19 08:41:20;;;;;;;2.03;1.93;;;;;;;1.79;75.29;95461.44;4322441;32;20353;-62
2024/01/19 08:43:48;;;;;;;1.97;1.87;;;;;;;1.69;76.27;95469.88;4300902;32;20298;-62
2024/01/19 08:46:14;;;;;;;4.57;2.37;;;;;;;1.65;76.07;95481.06;4325685;32;20279;-62
2024/01/19 08:48:45;;;;;;;2.23;2.03;;;;;;;1.73;75.87;95484.09;4339968;32;20309;-63
2024/01/19 08:51:18;;;;;;;2.00;1.90;;;;;;;1.71;76.22;95486.13;4334956;32;20290;-63
2024/01/19 08:53:46;;;;;;;1.10;1.10;;;;;;;2.02;75.06;95487.50;4318682;32;20293;-62
2024/01/19 08:56:19;;;;;;;2.67;2.47;;;;;;;2.27;75.09;95491.56;4319602;32;20282;-62
2024/01/19 08:58:49;;;;;;;6.03;3.07;;;;;;;1.90;74.87;95493.78;4270920;32;20331;-61
2024/01/19 09:01:18;;;;;;;1.77;1.70;;;;;;;1.60;77.26;95494.03;4340316;32;20330;-62
2024/01/19 09:03:44;;;;;;;2.20;2.10;;;;;;;1.79;76.76;95505.91;4280843;32;20326;-62
2024/01/19 09:06:12;;;;;;;2.93;2.73;;;;;;;2.04;76.13;95506.38;4331207;32;20336;-62
2024/01/19 09:08:50;;;;;;;2.53;2.40;;;;;;;2.11;77.19;95515.88;4319331;32;20289;-62
2024/01/19 09:11:16;;;;;;;1.93;1.87;;;;;;;2.08;75.78;95513.75;4319689;32;20332;-61
2024/01/19 09:13:42;;;;;;;1.53;1.53;;;;;;;2.21;74.22;95516.06;4315676;32;20323;-62
2024/01/19 09:16:12;;;;;;;2.07;1.97;;;;;;;2.17;75.17;95520.16;4301913;32;20302;-62
2024/01/19 09:18:38;;;;;;;3.77;2.90;;;;;;;2.27;74.25;95531.62;4293760;32;20260;-62
2024/01/19 09:21:06;;;;;;;2.57;2.40;;;;;;;1.80;75.36;95540.69;4303543;32;20318;-64
2024/01/19 09:23:34;;;;;;;2.50;2.30;;;;;;;1.72;75.58;95539.22;4313712;32;20304;-63
2024/01/19 09:26:01;;;;;;;2.80;1.53;;;;;;;1.82;76.53;95543.88;4327333;32;20281;-62
2024/01/19 09:28:30;;;;;;;2.67;2.43;;;;;;;1.89;77.60;95550.53;4335228;32;20329;-62
2024/01/19 09:30:56;;;;;;;2.67;2.47;;;;;;;1.65;76.31;95555.06;4314637;33;20305;-62
2024/01/19 09:33:23;;;;;;;2.40;2.30;;;;;;;1.83;75.46;95554.09;4301539;32;20281;-63
2024/01/19 09:35:51;;;;;;;2.23;1.57;;;;;;;1.45;76.97;95580.00;4329570;32;20361;-62
2024/01/19 09:38:19;;;;;;;2.47;2.37;;;;;;;1.61;76.96;95579.28;4322306;32;20370;-63
2024/01/19 09:40:47;;;;;;;2.10;2.00;;;;;;;1.89;77.44;95576.69;4322052;32;20338;-64
2024/01/19 09:43:14;;;;;;;2.07;1.97;;;;;;;1.80;75.77;95583.31;4296020;32;20298;-63
2024/01/19 09:45:41;;;;;;;2.80;2.60;;;;;;;1.77;76.68;95589.00;4327732;32;20355;-63
2024/01/19 09:48:24;;;;;;;1.83;1.73;;;;;;;2.14;75.39;95599.12;4317934;32;20344;-63
2024/01/19 09:51:00;;;;;;;2.93;2.73;;;;;;;1.56;76.04;95607.91;4329039;32;20371;-62
2024/01/19 09:53:34;;;;;;;3.73;2.20;;;;;;;2.01;75.10;95601.00;4311281;33;20289;-63
2024/01/19 09:56:01;;;;;;;2.50;2.27;;;;;;;2.06;75.54;95614.19;4339588;32;20289;-64
2024/01/19 09:58:30;;;;;;;1.93;1.83;;;;;;;1.63;76.94;95626.91;4318152;33;20344;-63
2024/01/19 10:01:03;;;;;;;3.37;3.17;;;;;;;1.59;77.23;95618.72;4318822;32;20318;-62
2024/01/19 10:03:32;;;;;;;2.70;2.47;;;;;;;1.33;77.71;95635.66;4329454;32;20281;-64
2024/01/19 10:06:00;;;;;;;3.97;2.77;;;;;;;1.43;77.89;95623.84;4325942;32;20281;-64
2024/01/19 10:08:30;;;;;;;2.10;2.00;;;;;;;1.04;79.18;95632.09;4328263;32;20345;-64
2024/01/19 10:11:08;;;;;;;2.37;2.27;;;;;;;1.50;78.96;95634.97;4315734;32;20298;-64
2024/01/19 10:13:36;;;;;;;3.73;3.10;;;;;;;1.64;79.07;95631.09;4303669;32;20362;-63
2024/01/19 10:16:01;;;;;;;2.57;2.47;;;;;;;1.78;77.76;95635.06;4322587;32;20337;-63
2024/01/19 10:18:28;;;;;;;2.90;2.70;;;;;;;1.76;75.61;95638.91;4299448;32;20298;-62
2024/01/19 10:20:55;;;;;;;2.20;2.10;;;;;;;2.10;75.26;95638.03;4307782;33;20212;-63
2024/01/19 10:23:23;;;;;;;2.77;2.53;;;;;;;2.13;74.87;95640.19;4319981;32;20417;-62
2024/01/19 10:25:51;;;;;;;1.87;1.77;;;;;;;2.64;75.33;95647.19;4330065;32;20271;-63
2024/01/19 10:28:35;;;;;;;2.37;2.20;;;;;;;2.69;72.66;95655.13;4311637;33;20330;-64
2024/01/19 10:31:28;;;;;;;11.77;2.80;;;;;;;1.78;76.12;95653.34;4324678;33;20332;-63
2024/01/19 10:33:58;;;;;;;2.40;2.30;;;;;;;1.87;76.31;95651.97;4322368;33;20291;-63
2024/01/19 10:36:29;;;;;;;2.30;2.20;;;;;;;1.75;76.53;95656.44;4303169;33;20290;-63
2024/01/19 10:39:16;;;;;;;2.47;2.27;;;;;;;1.47;76.79;95659.72;4314583;33;20279;-63
2024/01/19 10:41:43;;;;;;;3.60;3.30;;;;;;;1.59;77.50;95654.50;4303948;32;20301;-64
2024/01/19 10:44:16;;;;;;;2.80;2.60;;;;;;;1.72;77.18;95656.87;4313304;33;20322;-64
2024/01/19 10:46:45;;;;;;;4.03;2.77;;;;;;;1.61;77.44;95662.94;4310952;33;20377;-64
2024/01/19 10:49:23;;;;;;;2.47;2.30;;;;;;;1.81;76.21;95658.13;4312967;32;20283;-63
2024/01/19 10:51:51;;;;;;;2.47;2.27;;;;;;;1.63;76.37;95660.88;4336718;32;20360;-63
2024/01/19 10:54:27;;;;;;;3.03;2.83;;;;;;;2.01;75.34;95661.16;4285521;33;20398;-64
2024/01/19 10:57:09;;;;;;;2.77;2.57;;;;;;;1.35;76.31;95657.13;4275953;32;20285;-63
2024/01/19 10:59:37;;;;;;;3.47;3.17;;;;;;;1.38;78.90;95664.53;4329825;32;20353;-64
2024/01/19 11:02:03;;;;;;;2.77;2.63;;;;;;;1.61;77.73;95662.94;4279224;32;20290;-63
2024/01/19 11:04:29;;;;;;;2.43;2.33;;;;;;;1.49;77.62;95659.50;4319305;32;20332;-64
2024/01/19 11:06:56;;;;;;;3.10;2.70;;;;;;;1.37;78.65;95657.69;4337177;32;20215;-63
2024/01/19 11:09:26;;;;;;;6.80;4.00;;;;;;;1.08;80.36;95669.03;4327142;32;20214;-63
2024/01/19 11:12:04;;;;;;;2.90;2.73;;;;;;;0.79;81.38;95673.28;4330853;32;20287;-63
2024/01/19 11:14:33;;;;;;;3.17;2.83;;;;;;;0.78;81.09;95683.97;4334814;32;20301;-62
2024/01/19 11:17:02;;;;;;;2.03;1.93;;;;;;;0.96;81.55;95681.28;4284551;33;20338;-64
2024/01/19 11:19:31;;;;;;;4.07;3.23;;;;;;;1.21;79.79;95679.28;4330888;33;20329;-63
2024/01/19 11:21:59;;;;;;;2.30;2.20;;;;;;;1.47;78.67;95679.84;4330626;32;20294;-63
2024/01/19 11:24:30;;;;;;;2.43;2.33;;;;;;;1.63;77.02;95687.03;4330407;32;20377;-62
2024/01/19 11:27:12;;;;;;;2.30;2.20;;;;;;;1.65;77.39;95677.94;4333499;32;20304;-62
2024/01/19 11:29:52;;;;;;;3.47;3.27;;;;;;;1.71;76.64;95689.28;4302645;33;20313;-63
2024/01/19 11:32:20;;;;;;;5.80;3.07;;;;;;;1.54;77.62;95683.16;4329488;32;20294;-64
2024/01/19 11:34:50;;;;;;;3.00;2.90;;;;;;;1.55;78.88;95684.75;4332871;32;20377;-64
2024/01/19 11:37:48;;;;;;;1.83;1.83;;;;;;;1.59;78.30;95686.69;4329508;32;20373;-65